SQK weather

Sidi Barrani Airport
Sidi Barrani, Matruh Governorate, Egypt

Public forecast

Using degrees Celsius for public forecast. Weather courtesy of forecast.io.

Closest aviation weather report (METAR) to Sidi Barrani Airport

Closest report is Mersa Matruh Airport, 69.4 nm (128.5 km) E. Retrieved 2020/05/27 22:00 UTC (20 minutes ago):

HEMM 272200Z 32006KT CAVOK 19/11 Q1019 NOSIG

Closest aviation forecast (TAF) to Sidi Barrani Airport

Closest forecast is Mersa Matruh Airport, 69.4 nm (128.5 km) E. Retrieved 2020/05/27 18:51 UTC (3 hours ago):

TAF HEMM 271700Z 2718/2824 33012KT 9999 SCT020